CLASSIFICATION TEAM 30 km RR
home
    idracetypedateroutekmelevation (m)Pos.PETTORALEFamily NameNamescoregenderteamNAZIONALITACATEGORIAPOSIZIONECATTimeReal
    time
    Average
    km/hr
    RW30 km RRTT14/12/2018 09:00:00unic6,0050,0011AljarallahOmar200MRWSaudiOpen Male1/2000:48:5100:48:5136,80
    RW30 km RRTT14/12/2018 09:00:00unic6,0050,002104AlMutairiSultan199MRWSaudiOpen Male2/2000:48:5200:48:5236,80
    RW30 km RRTT14/12/2018 09:00:00unic6,0050,003219AlMsawiHossamMRWSaudiOpen Male3/2000:48:5300:48:5336,80
    RW30 km RRTT14/12/2018 09:00:00unic6,0050,00444AlKhuwaiterRayan198MRWSaudiOpen Male4/2000:48:5400:48:5436,80
    RW30 km RRTT14/12/2018 09:00:00unic6,0050,005200ErasmusRonaldMRWSouth AfricanMaster Male1/1100:49:0100:49:0136,70
    RW30 km RRTT14/12/2018 09:00:00unic6,0050,0066Dela RosaMichael197MRWFilipinoOpen Male5/2000:49:0400:49:0436,60
    RW30 km RRTT14/12/2018 09:00:00unic6,0050,00717PinanoAlfie196MRWFilipinoOpen Male6/2000:49:1800:49:1836,50
    RW30 km RRTT14/12/2018 09:00:00unic6,0050,008110BakerJosh195MRWBritishOpen Male7/2000:49:2000:49:2036,40
    RW30 km RRTT14/12/2018 09:00:00unic6,0050,00972DercoBrandon194MRWAmericanVeteran Male1/2300:50:0400:50:0435,90
    RW30 km RRTT14/12/2018 09:00:00unic6,0050,001059BallMartin193MRWBritishMaster Male2/1100:50:0600:50:0635,90
    RW30 km RRTT14/12/2018 09:00:00unic6,0050,00114KubaJiri192MRWGermanSenior Male1/400:51:1500:51:1535,10
    RW30 km RRTT14/12/2018 09:00:00unic6,0050,001240JazaeriYamen191MRWSyrianOpen Male8/2000:51:2300:51:2335,00
    RW30 km RRTT14/12/2018 09:00:00unic6,0050,001318PoetzschPatrick190MRWGermanVeteran Male2/2300:51:2900:51:2934,90
    RW30 km RRTT14/12/2018 09:00:00unic6,0050,001415AlBabtainAnas189MRWSaudiVeteran Male3/2300:51:3000:51:3034,90
    RW30 km RRTT14/12/2018 09:00:00unic6,0050,0015113GicanaRamil188MRWFilipinoVeteran Male4/2300:52:3200:52:3234,20
    RW30 km RRTT14/12/2018 09:00:00unic6,0050,00167SolimanPercival Jr187MRWFilipinoVeteran Male5/2300:52:3500:52:3534,20
    RW30 km RRTT14/12/2018 09:00:00unic6,0050,001763AlNajjarRaed186MRWPalestineVeteran Male6/2300:52:3500:52:3534,20
    RW30 km RRTT14/12/2018 09:00:00unic6,0050,001880ArafahAshraf185MRWSaudiOpen Male9/2000:53:1000:53:1033,80
    RW30 km RRTT14/12/2018 09:00:00unic6,0050,001931SungaJaime184MRWFilipinoMaster Male3/1100:53:1700:53:1733,70
    RW30 km RRTT14/12/2018 09:00:00unic6,0050,00209WaightScott183MRWNew ZealandVeteran Male7/2300:53:1900:53:1933,70
    RW30 km RRTT14/12/2018 09:00:00unic6,0050,002193ForeroYezith182MRWColombianVeteran Male8/2300:53:2000:53:2033,70
    RW30 km RRTT14/12/2018 09:00:00unic6,0050,0022203AsiriAliMRWSaudiOpen Male10/2000:53:2100:53:2133,70
    RW30 km RRTT14/12/2018 09:00:00unic6,0050,0023212AlSaifMohammedMRWSaudiOpen Male11/2000:54:0800:54:0833,20
    RW30 km RRTT14/12/2018 09:00:00unic6,0050,002436JohnsonDavid181MRWAmericanOpen Male12/2000:54:1900:54:1933,10
    RW30 km RRTT14/12/2018 09:00:00unic6,0050,0025205AlGhashamMohammedMRWSaudiOpen Male13/2000:54:2100:54:2133,10
    RW30 km RRTT14/12/2018 09:00:00unic6,0050,002673DollemanRogier180MRWNetherlandsVeteran Male9/2300:54:2300:54:2333,00
    RW30 km RRTT14/12/2018 09:00:00unic6,0050,002724GankemaJeroen179MRWNetherlandsVeteran Male10/2300:54:2700:54:2733,00
    RW30 km RRTT14/12/2018 09:00:00unic6,0050,002812McLeanJohn178MRWBritishVeteran Male11/2300:54:3000:54:3033,00
    RW30 km RRTT14/12/2018 09:00:00unic6,0050,0029209AlAbadAhmadMRWSaudiOpen Male14/2000:56:0100:56:0132,10
    RW30 km RRTT14/12/2018 09:00:00unic6,0050,003038TubangJulieto177MRWFilipinoMaster Male4/1100:56:5000:56:5031,60
    RW30 km RRTT14/12/2018 09:00:00unic6,0050,003122PeruchoRonald176MRWFilipinoVeteran Male12/2300:56:5900:56:5931,50
    RW30 km RRTT14/12/2018 09:00:00unic6,0050,0032210AlSarhiAliMRWSaudiOpen Male15/2000:57:0200:57:0231,50
    RW30 km RRTT14/12/2018 09:00:00unic6,0050,003323CalagoErwin175MRWFilipinoVeteran Male13/2300:57:0600:57:0631,50
    RW30 km RRTT14/12/2018 09:00:00unic6,0050,003434SumonodJorge174MRWFilipinoOpen Male16/2000:57:1400:57:1431,40
    RW30 km RRTT14/12/2018 09:00:00unic6,0050,003532OcaEdilberto173MRWFilipinoMaster Male5/1100:57:1600:57:1631,40
    RW30 km RRTT14/12/2018 09:00:00unic6,0050,003646CaceresMarvin172MRWFilipinoVeteran Male14/2300:57:3500:57:3531,20
    RW30 km RRTT14/12/2018 09:00:00unic6,0050,0037123MarinasHerbert Paul171MRWFilipinoOpen Male17/2000:57:3900:57:3931,20
    RW30 km RRTT14/12/2018 09:00:00unic6,0050,0038213AlQahtaniAbdullahMRWSaudiOpen Male18/2000:57:4300:57:4331,10
    RW30 km RRTT14/12/2018 09:00:00unic6,0050,003941TolentinoWilliam170MRWFilipinoMaster Male6/1100:58:3700:58:3730,70
    RW30 km RRTT14/12/2018 09:00:00unic6,0050,004069DetomalBernard169MRWFilipinoVeteran Male15/2300:58:4100:58:4130,60
    RW30 km RRTT14/12/2018 09:00:00unic6,0050,0041202LandoFulvioMRWItalianVeteran Male16/2300:58:4800:58:4830,60
    RW30 km RRTT14/12/2018 09:00:00unic6,0050,0042206SulaimanFaisal AlSubaieMRWSaudiOpen Male19/2000:59:3400:59:3430,20
    RW30 km RRTT14/12/2018 09:00:00unic6,0050,004339AltavasJose Cortes168MRWFilipinoVeteran Male17/2300:59:3600:59:3630,10
    RW30 km RRTT14/12/2018 09:00:00unic6,0050,004437LandoEdoardo167MRWItalianSenior Male2/400:59:3800:59:3830,10
    RW30 km RRTT14/12/2018 09:00:00unic6,0050,004519SantosMarvin166MRWFilipinoOpen Male20/2000:59:4800:59:4830,00
    RW30 km RRTT14/12/2018 09:00:00unic6,0050,0046204SantosRurik IanMRWFilipinoVeteran Male18/2300:59:5000:59:5030,00
    RW30 km RRTT14/12/2018 09:00:00unic6,0050,0047217ClarkStephenMRWBritishSenior Male3/401:01:2201:01:2229,30
    RW30 km RRTT14/12/2018 09:00:00unic6,0050,004849BakerAdele200MRWBritishVeteran Female101:01:3001:01:3029,20
    RW30 km RRTT14/12/2018 09:00:00unic6,0050,004978MaicanSorin165MRWRomaniaVeteran Male19/2301:03:4201:03:4228,20
    RW30 km RRTT14/12/2018 09:00:00unic6,0050,005095AdesokanColin164MRWAmericanMaster Male7/1101:04:0401:04:0428,00
    RW30 km RRTT14/12/2018 09:00:00unic6,0050,005133MarinasFlorie 199MRWFilipinoOpen Female1/401:04:0501:04:0528,00
    RW30 km RRTT14/12/2018 09:00:00unic6,0050,005282ManicdaoAriel163MRWFilipinoVeteran Male20/2301:06:3601:06:3627,00
    RW30 km RRTT14/12/2018 09:00:00unic6,0050,0053214CalvertJillMRWBritishOpen Female2/401:06:5101:06:5126,90
    RW30 km RRTT14/12/2018 09:00:00unic6,0050,005481JavierJessie162MRWFilipinoMaster Male8/1101:07:0401:07:0426,80
    RW30 km RRTT14/12/2018 09:00:00unic6,0050,0055100AraujoMaria198MRWItalianMaster Female101:07:2401:07:2426,70
    RW30 km RRTT14/12/2018 09:00:00unic6,0050,005670LandoLuigi 161MRWItalianSenior Male4/401:08:0501:08:0526,40
    RW30 km RRTT14/12/2018 09:00:00unic6,0050,005771MendozaRichard160MRWFilipinoVeteran Male21/2301:08:3401:08:3426,20
    RW30 km RRTT14/12/2018 09:00:00unic6,0050,005853FerreiraCaroline197MRWBrazilianOpen Female3/401:08:4401:08:4426,10
    RW30 km RRTT14/12/2018 09:00:00unic6,0050,0059215RahimaldeenSarah196MRWSaudiOpen Female4/401:08:4601:08:4626,10
    RW30 km RRTT14/12/2018 09:00:00unic6,0050,006062CrepaldiGustavo159MRWBrazilianVeteran Male22/2301:10:5301:10:5325,30
    RW30 km RRTT14/12/2018 09:00:00unic6,0050,006128EllaBenedict158MRWFilipinoMaster Male9/1101:10:5301:10:5325,30
    RW30 km RRTT14/12/2018 09:00:00unic6,0050,006254AlsarhaniAbdullah157MRWSaudiMaster Male10/1101:13:3801:13:3824,40
    RW30 km RRTT14/12/2018 09:00:00unic6,0050,0063216HollandJean-MarcMRWBelgianMaster Male11/1101:16:1401:16:1423,60
    RW30 km RRTT14/12/2018 09:00:00unic6,0050,006496ALShamekhAbdullah156MRWSaudiVeteran Male23/2301:21:4201:21:4222,00
    idracetypedateroute384,00
    km
    3200
    dislivello
    64
    n
    BIDFamily NameNamescoregenderteamNationalityCategoryPos.Cat.TimeReal
    time
    Average
    km/hr
Aljarallah OmarDela Rosa MichaelBaker JoshKuba JiriGicana RamilSoliman Percival JrArafah AshrafSunga JaimeWaight ScottForero YezithJohnson DavidDolleman RogierGankema JeroenMcLean JohnCalago ErwinSumonod JorgeOca EdilbertoCaceres MarvinMarinas Herbert PaulTolentino William
Detomal BernardAltavas Jose CortesLando EdoardoSantos Rurik IanClark StephenBaker AdeleMaican SorinJavier JessieAraujo MariaMendoza RichardElla BenedictAlsarhani Abdullah

30 km RR Athletes TEAM (first 200)

FIND ATHLETES races saved
find results also athletes others team
Fam.Name: Name:
rem: to insert Family name (It is simply a part of word)

FIND TEAM Races saved
You can find the result of others team
TEAM: RACE: ROUTE:
rem: to insert one team (It is simply a part of word)


home